HETCH HETCHY (HTH)

Elevation: 3870' · TUOLUMNE R basin · Operator: Hetch Hetchy Water and Power

Provisional data, subject to change.
Query executed Tuesday at 22:08:46   clock

Select a sensor type for a plot of data.
Note: Reservoir Flows are daily averages.

Earlier

Date RES ELE    STORAGE    RES CHG    OUTFLOW    INFLOW    PPT INC    RAIN    PPTINC4   
 FEET   AF   AF   CFS   CFS   INCHES   INCHES   INCHES  
08/28/2016 -- 319601 -- 558 -- 0.00 38.59 0.00
08/29/2016 -- 318467 -- 595 -- 0.00 38.59 0.00
08/30/2016 -- 317333 -- 571 -- 0.00 38.59 0.00
08/31/2016 -- 316388 -- 551 -- 0.00 38.59 0.00
09/01/2016 -- 315258 -- 574 -- 0.00 38.59 0.00
09/02/2016 -- 314318 -- 528 -- 0.00 38.59 0.00
09/03/2016 -- 313566 -- 521 -- 0.00 38.59 0.00
09/04/2016 -- 312438 -- 514 -- 0.00 38.59 0.00
09/05/2016 -- 311315 -- 521 -- 0.00 38.59 0.00
09/06/2016 -- 310567 -- 509 -- 0.00 38.59 0.00
09/07/2016 -- 308884 -- 495 -- 0.00 38.59 0.00
09/08/2016 -- 307949 -- 546 -- 0.00 38.59 0.00
09/09/2016 -- 306827 -- 543 -- 0.00 38.59 0.00
09/10/2016 -- 305896 -- 612 -- 0.00 38.59 0.00
09/11/2016 -- 304966 -- 445 -- 0.00 38.59 0.00
09/12/2016 -- 303664 -- 649 -- 0.00 38.59 0.00
09/13/2016 -- 302920 -- 504 -- 0.00 38.59 0.00
09/14/2016 -- 32176 -- 240 -- 0.00 38.59 0.00
09/15/2016 -- 301060 -- 603 -- 0.00 38.59 0.00
09/16/2016 -- 299950 -- 628 -- 0.00 38.59 0.00
09/17/2016 -- 299025 -- 499 -- 0.00 38.59 0.00
09/18/2016 -- 297915 -- 525 -- 0.00 38.59 0.00
09/19/2016 -- 296992 -- 572 -- 0.00 38.59 0.00
09/20/2016 -- 295888 -- 524 -- 0.00 38.59 0.00
09/21/2016 -- 294968 -- 540 -- 0.00 38.59 0.00
09/22/2016 -- 293864 -- 512 -- 0.05 38.64 0.00
09/23/2016 -- 293680 -- 477 -- 0.00 38.64 0.00
09/24/2016 -- 292024 -- 524 -- 0.00 38.64 0.00
09/25/2016 -- 291108 -- 481 -- 0.00 38.64 0.00
09/26/2016 -- 290193 -- 518 -- 0.00 38.64 0.00
09/27/2016 -- -- -- -- -- 0.00 -- 0.00

Later | Latest

Warning! This data is preliminary and subject to revision.

Show HTH Map | Plot HTH Data | 1 Month HTH Data | Real-Time HTH Data | HTH Info